createdAt,value
2024-04-30T00:01:30.033Z,2.7181208053691277
2024-04-30T00:04:51.652Z,3.033557046979866
2024-04-30T00:08:12.294Z,2.8053691275167787
2024-04-30T00:11:33.438Z,3.0
2024-04-30T00:14:54.169Z,2.6912751677852347
2024-04-30T00:18:14.594Z,2.6375838926174495
2024-04-30T00:21:35.213Z,3.0
2024-04-30T00:24:55.175Z,3.2013422818791946
2024-04-30T00:29:29.750Z,2.7181208053691277
2024-04-30T00:32:49.809Z,2.865771812080537
2024-04-30T00:36:09.661Z,3.140939597315436
2024-04-30T00:39:29.938Z,2.6241610738255035
2024-04-30T00:42:50.505Z,2.791946308724832
2024-04-30T00:46:11.230Z,3.2416107382550337
2024-04-30T00:49:32.278Z,3.214765100671141
2024-04-30T00:52:52.314Z,2.577181208053691
2024-04-30T00:56:12.191Z,3.3691275167785233
2024-04-30T00:59:33.063Z,3.0134228187919465
2024-04-30T01:02:54.172Z,3.120805369127517
2024-04-30T01:06:31.482Z,3.174496644295302
2024-04-30T01:12:52.182Z,3.0604026845637584
2024-04-30T01:16:11.452Z,3.785234899328859
2024-04-30T01:19:31.378Z,3.0268456375838926
2024-04-30T01:22:51.768Z,3.120805369127517
2024-04-30T01:26:11.410Z,2.9060402684563758
2024-04-30T01:29:32.329Z,3.4496644295302015
2024-04-30T01:37:08.988Z,3.315436241610738
2024-04-30T01:40:29.640Z,3.335570469798658
2024-04-30T01:43:51.080Z,3.335570469798658
2024-04-30T01:49:32.400Z,3.5436241610738257
2024-04-30T01:52:53.074Z,3.3221476510067114
2024-04-30T01:57:15.321Z,4.026845637583893
2024-04-30T02:00:35.509Z,3.033557046979866
2024-04-30T02:03:56.051Z,3.134228187919463
2024-04-30T02:07:16.621Z,3.9060402684563758
2024-04-30T02:10:37.119Z,3.2348993288590604
2024-04-30T02:13:57.141Z,3.315436241610738
2024-04-30T02:17:17.877Z,4.167785234899329
2024-04-30T02:23:59.020Z,3.785234899328859
2024-04-30T02:27:18.944Z,3.8993288590604025
2024-04-30T02:30:39.836Z,4.093959731543624
2024-04-30T02:34:00.453Z,4.308724832214765
2024-04-30T02:37:20.841Z,4.590604026845638
2024-04-30T02:40:40.860Z,4.718120805369128
2024-04-30T02:44:00.813Z,4.4630872483221475
2024-04-30T02:47:20.817Z,4.248322147651007
2024-04-30T02:50:41.129Z,4.604026845637584
2024-04-30T02:54:00.905Z,4.563758389261745
2024-04-30T02:57:21.978Z,4.382550335570469
2024-04-30T03:09:49.298Z,4.865771812080537
2024-04-30T03:14:33.720Z,5.476510067114094
2024-04-30T03:17:53.904Z,5.348993288590604
2024-04-30T03:21:13.556Z,5.395973154362416
2024-04-30T03:24:34.398Z,5.684563758389261
2024-04-30T03:27:53.969Z,5.617449664429531
2024-04-30T03:32:50.802Z,6.402684563758389
2024-04-30T03:36:10.913Z,6.9865771812080535
2024-04-30T03:39:51.224Z,6.557046979865772
2024-04-30T03:43:10.802Z,6.926174496644295
2024-04-30T03:48:45.653Z,6.375838926174497
2024-04-30T03:52:05.603Z,6.718120805369128
2024-04-30T03:56:41.881Z,6.201342281879195
2024-04-30T04:00:01.674Z,6.134228187919463
2024-04-30T04:03:21.606Z,6.328859060402684
2024-04-30T04:07:59.010Z,6.328859060402684
2024-04-30T04:11:18.390Z,5.76510067114094
2024-04-30T04:14:38.122Z,5.865771812080537
2024-04-30T04:17:58.369Z,5.315436241610739
2024-04-30T04:21:19.929Z,6.422818791946309
2024-04-30T04:24:41.068Z,5.630872483221476
2024-04-30T04:29:47.063Z,6.201342281879195
2024-04-30T04:33:07.382Z,5.946308724832215
2024-04-30T04:36:27.985Z,5.597315436241611
2024-04-30T04:47:52.653Z,6.3355704697986575
2024-04-30T04:51:12.567Z,6.348993288590604
2024-04-30T04:54:32.618Z,6.617449664429531
2024-04-30T05:00:59.608Z,6.590604026845638
2024-04-30T05:04:20.134Z,6.154362416107382
2024-04-30T05:07:40.687Z,6.342281879194631
2024-04-30T05:11:00.724Z,6.02013422818792
2024-04-30T05:14:20.537Z,5.76510067114094
2024-04-30T05:17:40.874Z,6.026845637583893
2024-04-30T05:21:01.141Z,5.389261744966443
2024-04-30T05:24:21.425Z,5.295302013422819
2024-04-30T05:27:42.215Z,5.557046979865772
2024-04-30T05:31:02.263Z,5.778523489932886
2024-04-30T05:37:57.261Z,4.859060402684563
2024-04-30T05:41:16.819Z,5.3624161073825505
2024-04-30T05:44:37.372Z,5.523489932885906
2024-04-30T05:47:57.364Z,5.9865771812080535
2024-04-30T05:51:17.613Z,5.825503355704698
2024-04-30T05:54:38.282Z,5.228187919463087
2024-04-30T05:57:58.264Z,5.738255033557047
2024-04-30T06:01:18.203Z,5.295302013422819
2024-04-30T06:04:38.567Z,5.040268456375839
2024-04-30T06:07:58.648Z,5.375838926174497
2024-04-30T06:11:18.240Z,5.167785234899329
2024-04-30T06:14:38.586Z,4.9865771812080535
2024-04-30T06:19:28.107Z,4.879194630872483
2024-04-30T06:22:48.445Z,5.248322147651007
2024-04-30T06:26:08.513Z,5.597315436241611
2024-04-30T06:29:28.906Z,4.993288590604027
2024-04-30T06:32:48.493Z,5.060402684563758
2024-04-30T06:38:09.766Z,4.879194630872483
2024-04-30T06:41:29.924Z,5.040268456375839
2024-04-30T06:44:49.291Z,4.932885906040268
2024-04-30T06:48:09.191Z,4.342281879194631
2024-04-30T06:51:29.815Z,5.449664429530201
2024-04-30T06:54:49.778Z,5.0
2024-04-30T06:58:10.257Z,5.657718120805369
2024-04-30T07:01:46.730Z,5.771812080536913
2024-04-30T07:05:06.926Z,5.208053691275167
2024-04-30T07:08:27.374Z,5.080536912751678
2024-04-30T07:11:46.818Z,5.174496644295302
2024-04-30T07:15:06.243Z,5.147651006711409
2024-04-30T07:18:26.665Z,5.053691275167785
2024-04-30T07:21:46.560Z,5.040268456375839
2024-04-30T07:25:08.239Z,5.093959731543624
2024-04-30T07:28:29.054Z,4.926174496644295
2024-04-30T07:34:40.098Z,4.530201342281879
2024-04-30T07:37:59.960Z,5.1610738255033555
2024-04-30T07:42:56.942Z,18.100671140939596
2024-04-30T07:47:59.225Z,7.644295302013423
2024-04-30T07:55:36.099Z,5.154362416107382
2024-04-30T07:58:56.759Z,4.731543624161074
2024-04-30T08:14:23.679Z,4.308724832214765
2024-04-30T08:17:43.896Z,5.0
2024-04-30T08:21:04.195Z,5.617449664429531
2024-04-30T08:24:24.357Z,4.328859060402684
2024-04-30T08:27:45.563Z,4.825503355704698
2024-04-30T08:31:06.758Z,4.751677852348993
2024-04-30T08:34:27.363Z,4.946308724832215
2024-04-30T08:37:54.388Z,5.073825503355705
2024-04-30T08:41:18.710Z,4.825503355704698
2024-04-30T08:44:39.317Z,4.778523489932886
2024-04-30T08:47:59.279Z,5.6644295302013425
2024-04-30T08:51:19.723Z,4.738255033557047
2024-04-30T08:54:40.823Z,5.241610738255034
2024-04-30T08:58:00.689Z,5.214765100671141
2024-04-30T09:01:31.288Z,5.369127516778524
2024-04-30T09:04:51.401Z,5.402684563758389
2024-04-30T09:08:11.503Z,4.6375838926174495
2024-04-30T09:11:31.693Z,5.10738255033557
2024-04-30T09:15:41.684Z,6.0
2024-04-30T09:19:01.512Z,6.476510067114094
2024-04-30T09:22:21.510Z,6.610738255033557
2024-04-30T09:25:41.472Z,6.906040268456376
2024-04-30T09:29:01.742Z,5.791946308724833
2024-04-30T09:32:22.493Z,6.409395973154362
2024-04-30T09:35:44.101Z,6.409395973154362
2024-04-30T09:39:58.712Z,7.120805369127517
2024-04-30T09:45:50.307Z,8.046979865771812
2024-04-30T09:49:09.931Z,8.61744966442953
2024-04-30T09:52:29.795Z,9.161073825503356
2024-04-30T09:55:49.374Z,8.946308724832214
2024-04-30T09:59:09.664Z,8.697986577181208
2024-04-30T10:02:30.428Z,8.228187919463087
2024-04-30T10:05:50.211Z,8.174496644295303
2024-04-30T10:09:10.252Z,7.583892617449664
2024-04-30T10:12:31.544Z,7.429530201342282
2024-04-30T10:15:51.942Z,7.268456375838926
2024-04-30T10:19:11.168Z,7.275167785234899
2024-04-30T10:22:32.223Z,7.677852348993288
2024-04-30T10:25:52.230Z,7.201342281879195
2024-04-30T10:29:12.181Z,8.033557046979865
2024-04-30T10:33:16.360Z,7.926174496644295
2024-04-30T10:36:37.158Z,9.053691275167786
2024-04-30T10:39:56.352Z,8.738255033557047
2024-04-30T10:45:19.319Z,8.369127516778523
2024-04-30T10:48:39.387Z,8.080536912751677
2024-04-30T10:51:59.544Z,7.771812080536913
2024-04-30T10:55:19.767Z,7.778523489932886
2024-04-30T10:58:40.308Z,7.993288590604027
2024-04-30T11:02:00.243Z,8.671140939597315
2024-04-30T11:05:20.430Z,9.026845637583893
2024-04-30T11:08:41.016Z,8.657718120805368
2024-04-30T11:13:25.160Z,9.657718120805368
2024-04-30T11:16:44.940Z,8.791946308724832
2024-04-30T11:20:05.282Z,8.78523489932886
2024-04-30T11:23:25.643Z,8.953020134228188
2024-04-30T11:26:49.899Z,8.825503355704697
2024-04-30T11:38:41.718Z,8.684563758389261
2024-04-30T11:42:13.793Z,8.926174496644295
2024-04-30T11:45:41.647Z,9.221476510067115
2024-04-30T11:51:22.103Z,8.651006711409396
2024-04-30T11:54:42.458Z,9.557046979865772
2024-04-30T11:58:02.860Z,9.503355704697986
2024-04-30T12:01:23.051Z,9.738255033557047
2024-04-30T12:04:43.637Z,10.06711409395973
2024-04-30T12:08:04.161Z,9.63758389261745
2024-04-30T12:11:24.608Z,9.436241610738255
2024-04-30T12:14:44.907Z,10.04026845637584
2024-04-30T12:18:05.258Z,9.953020134228188
2024-04-30T12:21:25.501Z,9.758389261744966
2024-04-30T12:28:42.312Z,10.228187919463087
2024-04-30T12:32:03.550Z,10.161073825503356
2024-04-30T12:35:23.907Z,10.228187919463087
2024-04-30T12:38:44.433Z,10.201342281879194
2024-04-30T12:42:04.210Z,10.06711409395973
2024-04-30T12:52:58.353Z,9.570469798657719
2024-04-30T12:56:18.061Z,9.953020134228188
2024-04-30T12:59:37.580Z,9.738255033557047
2024-04-30T13:06:47.499Z,10.771812080536913
2024-04-30T13:10:25.787Z,9.711409395973154
2024-04-30T13:16:01.847Z,11.053691275167786
2024-04-30T13:19:22.144Z,10.885906040268456
2024-04-30T13:22:42.793Z,10.187919463087248
2024-04-30T13:26:03.493Z,10.651006711409396
2024-04-30T13:35:38.294Z,10.630872483221477
2024-04-30T13:38:57.432Z,10.114093959731544
2024-04-30T13:42:17.435Z,10.181208053691275
2024-04-30T13:45:37.582Z,10.429530201342281
2024-04-30T13:48:57.491Z,10.570469798657719
2024-04-30T13:52:17.150Z,10.221476510067115
2024-04-30T13:57:09.585Z,10.557046979865772
2024-04-30T14:00:30.656Z,10.724832214765101
2024-04-30T14:03:50.272Z,10.120805369127517
2024-04-30T14:07:10.181Z,10.523489932885907
2024-04-30T14:10:30.158Z,10.080536912751677
2024-04-30T14:13:49.707Z,10.78523489932886
2024-04-30T14:21:24.670Z,10.966442953020135
2024-04-30T14:24:44.931Z,11.46979865771812
2024-04-30T14:28:04.926Z,10.85234899328859
2024-04-30T14:31:25.523Z,11.630872483221477
2024-04-30T14:38:01.286Z,11.342281879194632
2024-04-30T14:41:21.351Z,10.221476510067115
2024-04-30T14:44:41.105Z,11.201342281879194
2024-04-30T14:48:01.202Z,11.442953020134228
2024-04-30T14:51:21.181Z,11.201342281879194
2024-04-30T14:54:41.822Z,11.664429530201343
2024-04-30T15:05:22.242Z,11.95973154362416
2024-04-30T15:08:42.692Z,11.919463087248323
2024-04-30T15:12:02.665Z,11.832214765100671
2024-04-30T15:17:44.519Z,11.691275167785236
2024-04-30T15:21:04.648Z,11.919463087248323
2024-04-30T15:24:24.835Z,13.241610738255034
2024-04-30T15:27:45.167Z,12.308724832214764
2024-04-30T15:31:05.739Z,12.120805369127517
2024-04-30T15:34:26.699Z,11.684563758389261
2024-04-30T15:37:46.636Z,11.563758389261745
2024-04-30T15:41:07.911Z,11.375838926174497
2024-04-30T15:44:28.036Z,11.389261744966444
2024-04-30T15:47:48.024Z,11.865771812080537
2024-04-30T15:55:53.647Z,14.93288590604027
2024-04-30T16:09:15.675Z,11.979865771812081
2024-04-30T16:13:14.224Z,11.167785234899329
2024-04-30T16:18:40.129Z,11.95973154362416
2024-04-30T16:26:15.640Z,11.865771812080537
2024-04-30T16:29:35.986Z,12.10738255033557
2024-04-30T16:32:55.972Z,11.557046979865772
2024-04-30T16:36:15.927Z,13.483221476510067
2024-04-30T16:39:36.336Z,12.778523489932885
2024-04-30T16:42:56.273Z,12.140939597315436
2024-04-30T16:46:16.450Z,12.161073825503356
2024-04-30T16:49:37.811Z,12.523489932885907
2024-04-30T16:52:57.952Z,12.322147651006711
2024-04-30T16:56:17.923Z,12.288590604026846
2024-04-30T16:59:37.949Z,12.778523489932885
2024-04-30T17:02:58.024Z,11.778523489932885
2024-04-30T17:06:18.299Z,11.805369127516778
2024-04-30T17:09:50.478Z,12.25503355704698
2024-04-30T17:13:09.762Z,12.026845637583893
2024-04-30T17:16:29.718Z,12.395973154362416
2024-04-30T17:19:49.469Z,11.765100671140939
2024-04-30T17:23:09.024Z,11.879194630872483
2024-04-30T17:26:29.825Z,12.167785234899329
2024-04-30T17:38:22.357Z,13.21476510067114
2024-04-30T17:50:13.988Z,12.590604026845638
2024-04-30T17:53:34.469Z,12.328859060402685
2024-04-30T17:56:54.141Z,13.281879194630873
2024-04-30T18:00:13.959Z,13.161073825503356
2024-04-30T18:03:33.978Z,13.25503355704698
2024-04-30T18:08:00.377Z,14.523489932885907
2024-04-30T18:15:41.087Z,14.395973154362416
2024-04-30T18:19:01.153Z,14.389261744966444
2024-04-30T18:33:37.767Z,14.590604026845638
2024-04-30T18:36:59.644Z,14.557046979865772
2024-04-30T18:40:24.918Z,16.91275167785235
2024-04-30T18:43:49.863Z,15.805369127516778
2024-04-30T18:47:12.850Z,15.496644295302014
2024-04-30T18:51:41.088Z,14.979865771812081
2024-04-30T18:55:04.985Z,15.885906040268456
2024-04-30T18:58:30.518Z,15.395973154362416
2024-04-30T19:01:54.282Z,14.61744966442953
2024-04-30T19:05:19.072Z,14.610738255033556
2024-04-30T19:08:42.287Z,15.731543624161073
2024-04-30T19:12:06.416Z,15.355704697986576
2024-04-30T19:16:58.112Z,15.536912751677852
2024-04-30T19:20:21.538Z,15.409395973154362
2024-04-30T19:28:32.742Z,16.664429530201343
2024-04-30T19:31:56.182Z,16.825503355704697
2024-04-30T19:35:20.984Z,17.29530201342282
2024-04-30T19:38:44.431Z,18.241610738255034
2024-04-30T19:42:08.581Z,17.677852348993287
2024-04-30T19:45:33.616Z,22.838926174496645
2024-04-30T19:48:57.566Z,43.74496644295302
2024-04-30T19:52:20.616Z,51.38255033557047
2024-04-30T19:57:54.520Z,43.36241610738255
2024-04-30T20:01:17.960Z,39.395973154362416
2024-04-30T20:04:38.589Z,37.34228187919463
2024-04-30T20:07:59.001Z,34.281879194630875
2024-04-30T20:11:20.347Z,31.23489932885906
2024-04-30T20:14:41.681Z,29.2751677852349
2024-04-30T20:18:02.720Z,27.516778523489933
2024-04-30T20:22:02.951Z,26.25503355704698
2024-04-30T20:25:23.531Z,25.395973154362416
2024-04-30T20:28:45.622Z,24.55704697986577
2024-04-30T20:32:06.734Z,38.20805369127517
2024-04-30T20:35:27.036Z,85.29530201342281
2024-04-30T20:38:46.949Z,96.28187919463087
2024-04-30T20:42:20.071Z,82.60402684563758
2024-04-30T20:45:49.745Z,87.34228187919463
2024-04-30T20:49:09.868Z,79.31543624161074
2024-04-30T20:52:30.730Z,56.47651006711409
2024-04-30T20:55:50.665Z,35.83892617449664
2024-04-30T20:59:10.783Z,25.2751677852349
2024-04-30T21:02:31.448Z,22.483221476510067
2024-04-30T21:05:51.592Z,21.21476510067114
2024-04-30T21:12:31.295Z,21.28187919463087
2024-04-30T21:15:50.880Z,20.536912751677853
2024-04-30T21:19:11.005Z,19.87248322147651
2024-04-30T21:26:47.756Z,20.302013422818792
2024-04-30T21:40:02.982Z,20.55704697986577
2024-04-30T21:43:23.538Z,20.610738255033556
2024-04-30T21:46:44.242Z,20.71812080536913
2024-04-30T21:50:04.291Z,20.845637583892618
2024-04-30T21:53:24.291Z,21.221476510067113
2024-04-30T21:56:44.515Z,20.993288590604028
2024-04-30T22:00:05.707Z,21.7248322147651
2024-04-30T22:05:51.989Z,21.322147651006713
2024-04-30T22:09:46.017Z,21.483221476510067
2024-04-30T22:13:05.963Z,20.691275167785236
2024-04-30T22:16:26.569Z,20.395973154362416
2024-04-30T22:30:54.857Z,20.651006711409394
2024-04-30T22:34:16.293Z,20.87248322147651
2024-04-30T22:37:36.635Z,21.77181208053691
2024-04-30T22:40:56.600Z,21.302013422818792
2024-04-30T22:44:16.054Z,20.76510067114094
2024-04-30T22:47:36.407Z,21.14765100671141
2024-04-30T22:57:00.085Z,20.959731543624162
2024-04-30T23:00:20.383Z,20.671140939597315
2024-04-30T23:03:41.402Z,22.16778523489933
2024-04-30T23:07:01.421Z,22.530201342281877
2024-04-30T23:10:28.113Z,24.046979865771814
2024-04-30T23:13:48.178Z,23.161073825503355
2024-04-30T23:17:07.995Z,23.369127516778523
2024-04-30T23:20:30.645Z,22.288590604026847
2024-04-30T23:24:15.584Z,22.355704697986578
2024-04-30T23:27:36.398Z,21.322147651006713
2024-04-30T23:30:56.529Z,22.13422818791946
2024-04-30T23:34:16.801Z,22.328859060402685
2024-04-30T23:37:37.386Z,22.530201342281877
2024-04-30T23:40:57.319Z,23.22818791946309
2024-04-30T23:44:20.775Z,24.12751677852349
2024-04-30T23:47:41.120Z,24.28187919463087
2024-04-30T23:51:01.391Z,23.48993288590604
2024-04-30T23:54:21.451Z,23.19463087248322
2024-04-30T23:57:41.734Z,23.530201342281877
